createdAt,value
2019-04-06T00:01:25.427Z,42.80
2019-04-06T00:03:54.154Z,42.80
2019-04-06T00:06:22.878Z,43.00
2019-04-06T00:08:51.554Z,43.80
2019-04-06T00:11:20.279Z,43.60
2019-04-06T00:13:48.942Z,43.30
2019-04-06T00:16:17.708Z,43.20
2019-04-06T00:18:46.339Z,43.20
2019-04-06T00:21:15.066Z,43.10
2019-04-06T00:23:43.726Z,43.50
2019-04-06T00:26:12.437Z,43.30
2019-04-06T00:28:41.050Z,43.40
2019-04-06T00:31:27.715Z,43.10
2019-04-06T00:33:57.475Z,43.20
2019-04-06T00:36:26.211Z,43.10
2019-04-06T00:38:54.863Z,42.90
2019-04-06T00:41:23.657Z,43.00
2019-04-06T00:43:52.386Z,42.80
2019-04-06T00:46:21.122Z,43.00
2019-04-06T00:48:49.859Z,43.00
2019-04-06T00:51:18.659Z,43.10
2019-04-06T00:53:47.326Z,42.90
2019-04-06T00:56:16.115Z,43.40
2019-04-06T00:58:44.850Z,43.10
2019-04-06T01:01:14.155Z,43.00
2019-04-06T01:03:42.813Z,43.00
2019-04-06T01:06:13.898Z,42.90
2019-04-06T01:08:42.630Z,42.90
2019-04-06T01:11:11.438Z,42.90
2019-04-06T01:13:40.170Z,42.90
2019-04-06T01:16:10.787Z,42.90
2019-04-06T01:18:39.550Z,43.10
2019-04-06T01:21:08.433Z,43.20
2019-04-06T01:23:37.167Z,43.40
2019-04-06T01:26:07.516Z,43.50
2019-04-06T01:28:36.411Z,43.80
2019-04-06T01:31:05.146Z,44.00
2019-04-06T01:33:33.879Z,43.90
2019-04-06T01:36:02.606Z,43.70
2019-04-06T01:38:31.399Z,43.60
2019-04-06T01:41:00.065Z,43.60
2019-04-06T01:43:28.866Z,43.60
2019-04-06T01:45:58.844Z,43.60
2019-04-06T01:48:27.626Z,43.80
2019-04-06T01:50:56.370Z,44.30
2019-04-06T01:53:25.180Z,44.40
2019-04-06T01:55:53.830Z,44.00
2019-04-06T01:58:22.673Z,44.20
2019-04-06T02:00:58.870Z,44.00
2019-04-06T02:03:27.670Z,44.00
2019-04-06T02:05:56.399Z,44.20
2019-04-06T02:08:25.202Z,43.90
2019-04-06T02:10:53.858Z,44.10
2019-04-06T02:13:22.658Z,44.30
2019-04-06T02:15:51.427Z,44.30
2019-04-06T02:18:20.202Z,44.60
2019-04-06T02:20:49.465Z,44.50
2019-04-06T02:23:18.271Z,44.70
2019-04-06T02:25:46.938Z,44.50
2019-04-06T02:28:15.840Z,44.30
2019-04-06T02:30:54.847Z,44.20
2019-04-06T02:33:33.962Z,44.50
2019-04-06T02:36:15.333Z,44.70
2019-04-06T02:38:50.981Z,44.70
2019-04-06T02:41:21.367Z,44.80
2019-04-06T02:43:50.104Z,45.40
2019-04-06T02:46:18.750Z,44.80
2019-04-06T02:48:47.514Z,45.40
2019-04-06T02:51:16.286Z,45.00
2019-04-06T02:53:45.031Z,44.90
2019-04-06T02:56:15.505Z,44.80
2019-04-06T02:58:46.353Z,45.00
2019-04-06T03:01:15.168Z,45.00
2019-04-06T03:03:43.990Z,45.20
2019-04-06T03:06:12.796Z,45.20
2019-04-06T03:08:41.530Z,45.10
2019-04-06T03:11:10.327Z,45.00
2019-04-06T03:13:39.060Z,45.00
2019-04-06T03:16:07.949Z,45.60
2019-04-06T03:18:36.651Z,45.10
2019-04-06T03:21:05.401Z,45.10
2019-04-06T03:23:49.024Z,45.00
2019-04-06T03:26:04.500Z,44.90
2019-04-06T03:28:33.230Z,45.00
2019-04-06T03:31:02.022Z,45.10
2019-04-06T03:33:30.743Z,45.20
2019-04-06T03:35:59.540Z,45.40
2019-04-06T03:38:28.219Z,45.30
2019-04-06T03:40:57.000Z,45.50
2019-04-06T03:43:25.655Z,45.60
2019-04-06T03:45:54.459Z,45.70
2019-04-06T03:48:23.180Z,45.50
2019-04-06T03:50:52.049Z,45.50
2019-04-06T03:53:20.818Z,45.40
2019-04-06T03:55:49.723Z,45.40
2019-04-06T03:58:18.485Z,45.50
2019-04-06T04:00:47.372Z,45.50
2019-04-06T04:03:16.187Z,45.40
2019-04-06T04:05:44.912Z,45.50
2019-04-06T04:08:13.661Z,45.50
2019-04-06T04:10:46.867Z,45.60
2019-04-06T04:13:13.274Z,45.40
2019-04-06T04:15:43.481Z,45.50
2019-04-06T04:18:12.296Z,45.50
2019-04-06T04:20:41.060Z,45.50
2019-04-06T04:23:09.795Z,45.40
2019-04-06T04:25:40.727Z,45.90
2019-04-06T04:28:09.473Z,45.30
2019-04-06T04:30:38.232Z,45.40
2019-04-06T04:33:07.051Z,45.30
2019-04-06T04:35:36.550Z,45.30
2019-04-06T04:38:05.419Z,45.40
2019-04-06T04:40:34.225Z,45.20
2019-04-06T04:43:03.418Z,45.00
2019-04-06T04:45:32.175Z,45.10
2019-04-06T04:48:00.968Z,44.80
2019-04-06T04:50:29.651Z,44.80
2019-04-06T04:52:58.521Z,44.80
2019-04-06T04:55:27.427Z,44.80
2019-04-06T04:57:56.310Z,44.60
2019-04-06T05:00:25.063Z,44.60
2019-04-06T05:02:53.915Z,44.50
2019-04-06T05:05:22.710Z,44.50
2019-04-06T05:07:51.563Z,44.20
2019-04-06T05:10:21.398Z,44.20
2019-04-06T05:12:50.289Z,44.30
2019-04-06T05:15:31.087Z,44.40
2019-04-06T05:17:59.930Z,43.50
2019-04-06T05:20:28.699Z,43.60
2019-04-06T05:22:57.490Z,43.20
2019-04-06T05:25:26.413Z,43.00
2019-04-06T05:27:55.259Z,43.00
2019-04-06T05:30:24.283Z,42.90
2019-04-06T05:32:53.045Z,43.30
2019-04-06T05:35:21.927Z,42.50
2019-04-06T05:37:50.624Z,42.00
2019-04-06T05:40:21.365Z,42.20
2019-04-06T05:42:50.162Z,41.70
2019-04-06T05:45:21.716Z,42.40
2019-04-06T05:47:50.379Z,41.90
2019-04-06T05:50:20.200Z,41.80
2019-04-06T05:52:50.439Z,41.70
2019-04-06T05:55:19.328Z,41.50
2019-04-06T05:57:49.845Z,41.50
2019-04-06T06:00:18.727Z,41.50
2019-04-06T06:02:47.410Z,41.20
2019-04-06T06:05:16.169Z,41.20
2019-04-06T06:07:44.932Z,40.70
2019-04-06T06:10:14.158Z,40.10
2019-04-06T06:12:42.973Z,40.10
2019-04-06T06:15:11.987Z,39.70
2019-04-06T06:17:40.728Z,39.70
2019-04-06T06:20:09.466Z,39.60
2019-04-06T06:22:38.225Z,38.80
2019-04-06T06:25:07.465Z,38.80
2019-04-06T06:27:36.201Z,38.50
2019-04-06T06:30:08.536Z,38.80
2019-04-06T06:32:37.330Z,38.10
2019-04-06T06:35:07.553Z,38.20
2019-04-06T06:37:36.297Z,38.00
2019-04-06T06:40:06.707Z,37.90
2019-04-06T06:42:35.447Z,37.30
2019-04-06T06:45:06.199Z,37.30
2019-04-06T06:47:35.027Z,37.20
2019-04-06T06:50:07.763Z,36.70
2019-04-06T06:52:37.338Z,36.80
2019-04-06T06:55:06.740Z,36.30
2019-04-06T06:57:35.559Z,36.40
2019-04-06T07:00:05.723Z,36.30
2019-04-06T07:02:35.547Z,36.20
2019-04-06T07:05:05.923Z,36.20
2019-04-06T07:07:34.745Z,35.90
2019-04-06T07:10:06.120Z,35.40
2019-04-06T07:12:36.284Z,35.50
2019-04-06T07:15:06.954Z,35.60
2019-04-06T07:17:35.707Z,34.80
2019-04-06T07:20:06.327Z,35.10
2019-04-06T07:22:35.391Z,34.70
2019-04-06T07:25:06.863Z,34.80
2019-04-06T07:27:35.772Z,34.90
2019-04-06T07:30:07.798Z,34.70
2019-04-06T07:32:36.639Z,34.60
2019-04-06T07:35:06.299Z,34.20
2019-04-06T07:37:35.177Z,34.50
2019-04-06T07:40:09.105Z,33.70
2019-04-06T07:42:37.842Z,33.60
2019-04-06T07:45:09.899Z,33.10
2019-04-06T07:47:39.802Z,33.00
2019-04-06T07:50:09.154Z,33.30
2019-04-06T07:52:37.904Z,33.00
2019-04-06T07:55:08.169Z,32.60
2019-04-06T07:57:36.843Z,32.90
2019-04-06T08:00:07.107Z,32.50
2019-04-06T08:02:35.965Z,32.40
2019-04-06T08:05:05.822Z,32.10
2019-04-06T08:07:34.511Z,31.90
2019-04-06T08:10:03.632Z,31.30
2019-04-06T08:12:32.328Z,31.30
2019-04-06T08:15:01.202Z,31.00
2019-04-06T08:17:30.051Z,31.10
2019-04-06T08:19:58.776Z,30.70
2019-04-06T08:22:29.507Z,30.00
2019-04-06T08:24:58.272Z,30.50
2019-04-06T08:27:27.025Z,30.10
2019-04-06T08:29:55.967Z,30.20
2019-04-06T08:32:24.833Z,30.20
2019-04-06T08:34:53.646Z,30.10
2019-04-06T08:37:22.400Z,29.50
2019-04-06T08:39:51.345Z,29.90
2019-04-06T08:42:20.183Z,29.70
2019-04-06T08:44:48.873Z,29.90
2019-04-06T08:47:17.675Z,29.50
2019-04-06T08:49:46.461Z,29.60
2019-04-06T08:52:15.355Z,29.20
2019-04-06T08:54:44.238Z,28.80
2019-04-06T08:57:12.998Z,28.80
2019-04-06T08:59:41.760Z,28.20
2019-04-06T09:02:10.596Z,27.90
2019-04-06T09:04:39.335Z,27.60
2019-04-06T09:07:08.073Z,27.80
2019-04-06T09:09:36.799Z,27.30
2019-04-06T09:12:06.620Z,28.00
2019-04-06T09:14:35.383Z,27.00
2019-04-06T09:17:04.134Z,26.40
2019-04-06T09:19:34.641Z,26.70
2019-04-06T09:22:03.462Z,26.50
2019-04-06T09:24:32.255Z,26.60
2019-04-06T09:27:02.686Z,25.90
2019-04-06T09:29:31.878Z,25.70
2019-04-06T09:32:00.678Z,26.50
2019-04-06T09:34:31.354Z,25.80
2019-04-06T09:36:59.994Z,32.80
2019-04-06T09:39:28.815Z,25.30
2019-04-06T09:41:57.935Z,25.30
2019-04-06T09:44:31.329Z,25.00
2019-04-06T09:47:04.488Z,25.40
2019-04-06T09:49:43.676Z,25.10
2019-04-06T09:52:32.182Z,24.90
2019-04-06T09:55:02.506Z,26.10
2019-04-06T09:57:32.910Z,25.30
2019-04-06T10:00:19.211Z,26.00
2019-04-06T10:02:49.660Z,25.60
2019-04-06T10:05:22.928Z,25.80
2019-04-06T10:07:57.090Z,25.50
2019-04-06T10:10:37.096Z,25.60
2019-04-06T10:13:16.931Z,26.90
2019-04-06T10:15:53.218Z,25.80
2019-04-06T10:18:39.002Z,25.90
2019-04-06T10:21:27.566Z,25.00
2019-04-06T10:23:57.995Z,25.60
2019-04-06T10:26:28.483Z,25.60
2019-04-06T10:29:07.853Z,24.90
2019-04-06T10:31:53.257Z,25.50
2019-04-06T10:34:42.074Z,25.70
2019-04-06T10:37:28.470Z,25.30
2019-04-06T10:40:04.703Z,25.40
2019-04-06T10:42:53.489Z,24.90
2019-04-06T10:45:23.938Z,24.90
2019-04-06T10:48:02.335Z,24.90
2019-04-06T10:50:45.171Z,25.30
2019-04-06T10:53:15.858Z,25.10
2019-04-06T10:55:46.299Z,25.20
2019-04-06T10:58:22.332Z,24.40
2019-04-06T11:01:01.322Z,24.60
2019-04-06T11:03:34.413Z,25.10
2019-04-06T11:06:20.040Z,24.70
2019-04-06T11:08:50.767Z,24.70
2019-04-06T11:11:37.835Z,24.20
2019-04-06T11:14:14.491Z,24.00
2019-04-06T11:16:53.841Z,24.40
2019-04-06T11:19:30.079Z,24.50
2019-04-06T11:22:02.546Z,23.70
2019-04-06T11:24:45.088Z,24.10
2019-04-06T11:27:33.420Z,24.30
2019-04-06T11:30:20.242Z,24.20
2019-04-06T11:32:56.652Z,23.90
2019-04-06T11:35:47.174Z,24.00
2019-04-06T11:38:17.666Z,24.10
2019-04-06T11:40:48.096Z,24.10
2019-04-06T11:43:22.445Z,24.10
2019-04-06T11:46:10.210Z,24.10
2019-04-06T11:48:51.378Z,24.00
2019-04-06T11:51:27.773Z,23.80
2019-04-06T11:54:09.032Z,24.10
2019-04-06T11:56:49.711Z,24.00
2019-04-06T11:59:34.387Z,24.30
2019-04-06T12:02:04.803Z,24.40
2019-04-06T12:04:35.243Z,23.20
2019-04-06T12:07:11.463Z,23.60
2019-04-06T12:09:57.178Z,23.70
2019-04-06T12:12:43.786Z,23.40
2019-04-06T12:15:17.218Z,23.30
2019-04-06T12:17:47.682Z,23.60
2019-04-06T12:20:24.071Z,23.30
2019-04-06T12:23:03.312Z,23.20
2019-04-06T12:25:33.826Z,23.00
2019-04-06T12:28:09.753Z,22.90
2019-04-06T12:30:58.760Z,23.30
2019-04-06T12:33:29.166Z,23.60
2019-04-06T12:35:59.997Z,23.10
2019-04-06T12:38:33.676Z,23.40
2019-04-06T12:41:19.256Z,22.70
2019-04-06T12:44:06.775Z,22.40
2019-04-06T12:46:55.546Z,22.60
2019-04-06T12:49:32.431Z,22.60
2019-04-06T12:52:14.012Z,23.10
2019-04-06T12:54:57.534Z,22.00
2019-04-06T12:57:28.060Z,21.80
2019-04-06T13:00:00.326Z,22.30
2019-04-06T13:02:30.469Z,22.20
2019-04-06T13:05:12.575Z,22.00
2019-04-06T13:07:57.299Z,21.80
2019-04-06T13:10:46.033Z,22.50
2019-04-06T13:13:32.349Z,22.00
2019-04-06T13:16:18.845Z,21.80
2019-04-06T13:18:49.649Z,21.70
2019-04-06T13:21:22.016Z,21.80
2019-04-06T13:23:52.500Z,21.70
2019-04-06T13:26:39.595Z,21.80
2019-04-06T13:29:14.699Z,21.50
2019-04-06T13:31:48.827Z,21.30
2019-04-06T13:34:35.731Z,21.50
2019-04-06T13:37:19.410Z,21.10
2019-04-06T13:39:55.772Z,21.80
2019-04-06T13:43:01.933Z,21.90
2019-04-06T13:45:41.620Z,22.00
2019-04-06T13:48:27.304Z,21.80
2019-04-06T13:51:09.547Z,22.20
2019-04-06T13:53:42.784Z,22.00
2019-04-06T13:56:17.516Z,21.20
2019-04-06T13:58:47.902Z,21.40
2019-04-06T14:01:21.191Z,21.30
2019-04-06T14:03:51.579Z,21.50
2019-04-06T14:06:21.996Z,21.60
2019-04-06T14:08:55.514Z,21.80
2019-04-06T14:11:27.541Z,22.10
2019-04-06T14:14:01.750Z,21.70
2019-04-06T14:16:38.167Z,21.90
2019-04-06T14:19:27.031Z,21.70
2019-04-06T14:22:03.167Z,22.00
2019-04-06T14:24:50.719Z,21.20
2019-04-06T14:27:21.220Z,21.80
2019-04-06T14:29:51.645Z,21.80
2019-04-06T14:32:23.497Z,21.90
2019-04-06T14:34:55.049Z,22.00
2019-04-06T14:37:27.165Z,21.20
2019-04-06T14:40:09.584Z,20.70
2019-04-06T14:42:40.072Z,20.70
2019-04-06T14:45:31.048Z,20.80
2019-04-06T14:48:09.449Z,20.20
2019-04-06T14:50:55.035Z,19.10
2019-04-06T14:53:28.056Z,18.90
2019-04-06T14:56:04.680Z,18.70
2019-04-06T14:58:53.747Z,19.00
2019-04-06T15:01:41.530Z,19.80
2019-04-06T15:04:12.348Z,19.90
2019-04-06T15:06:42.759Z,19.80
2019-04-06T15:09:23.050Z,19.50
2019-04-06T15:12:05.910Z,19.70
2019-04-06T15:14:54.735Z,20.50
2019-04-06T15:17:41.221Z,20.40
2019-04-06T15:20:11.870Z,21.00
2019-04-06T15:22:42.359Z,20.70
2019-04-06T15:25:21.569Z,20.20
2019-04-06T15:27:52.117Z,19.70
2019-04-06T15:30:28.354Z,19.80
2019-04-06T15:33:15.426Z,20.00
2019-04-06T15:35:48.885Z,19.80
2019-04-06T15:38:36.477Z,19.70
2019-04-06T15:41:23.808Z,19.70
2019-04-06T15:43:54.157Z,19.40
2019-04-06T15:46:24.583Z,19.70
2019-04-06T15:48:55.440Z,19.30
2019-04-06T15:51:25.920Z,19.30
2019-04-06T15:54:07.659Z,19.80
2019-04-06T15:56:54.420Z,20.20
2019-04-06T15:59:45.557Z,20.00
2019-04-06T16:02:19.516Z,20.10
2019-04-06T16:04:50.441Z,19.90
2019-04-06T16:07:30.875Z,20.00
2019-04-06T16:10:09.886Z,20.50
2019-04-06T16:12:46.240Z,20.30
2019-04-06T16:15:33.019Z,20.30
2019-04-06T16:18:09.397Z,20.90
2019-04-06T16:20:58.299Z,21.00
2019-04-06T16:24:01.734Z,21.60
2019-04-06T16:26:32.007Z,21.70
2019-04-06T16:29:02.626Z,22.00
2019-04-06T16:31:43.592Z,22.50
2019-04-06T16:34:16.955Z,22.90
2019-04-06T16:37:03.976Z,23.00
2019-04-06T16:39:36.283Z,23.50
2019-04-06T16:42:06.792Z,23.80
2019-04-06T16:44:37.590Z,24.30
2019-04-06T16:47:24.936Z,24.30
2019-04-06T16:50:01.719Z,24.70
2019-04-06T16:52:49.042Z,25.00
2019-04-06T16:55:25.857Z,25.10
2019-04-06T16:58:01.947Z,25.50
2019-04-06T17:00:32.300Z,26.00
2019-04-06T17:03:19.309Z,26.30
2019-04-06T17:05:55.754Z,26.50
2019-04-06T17:08:42.459Z,26.50
2019-04-06T17:11:12.963Z,26.70
2019-04-06T17:13:43.515Z,26.90
2019-04-06T17:16:34.203Z,27.10
2019-04-06T17:19:20.841Z,27.60
2019-04-06T17:22:00.067Z,27.60
2019-04-06T17:24:35.089Z,27.70
2019-04-06T17:27:17.255Z,28.10
2019-04-06T17:29:47.724Z,28.50
2019-04-06T17:32:18.314Z,28.80
2019-04-06T17:34:54.291Z,28.70
2019-04-06T17:37:30.548Z,28.90
2019-04-06T17:40:16.048Z,29.30
2019-04-06T17:42:46.455Z,29.30
2019-04-06T17:45:19.703Z,29.60
2019-04-06T17:48:07.090Z,29.90
2019-04-06T17:50:37.690Z,30.10
2019-04-06T17:53:20.150Z,30.00
2019-04-06T17:55:50.736Z,30.40
2019-04-06T17:58:33.253Z,30.80
2019-04-06T18:01:09.929Z,31.10
2019-04-06T18:03:43.998Z,31.40
2019-04-06T18:06:17.224Z,31.50
2019-04-06T18:08:56.818Z,31.90
2019-04-06T18:11:27.282Z,32.30
2019-04-06T18:13:56.331Z,32.30
2019-04-06T18:16:29.294Z,32.60
2019-04-06T18:18:58.131Z,33.30
2019-04-06T18:21:27.021Z,32.80
2019-04-06T18:23:55.942Z,32.70
2019-04-06T18:26:25.026Z,32.70
2019-04-06T18:28:53.749Z,32.90
2019-04-06T18:31:38.316Z,33.10
2019-04-06T18:34:10.818Z,33.90
2019-04-06T18:36:53.959Z,33.90
2019-04-06T18:39:24.283Z,34.20
2019-04-06T18:41:53.577Z,35.00
2019-04-06T18:44:23.050Z,35.80
2019-04-06T18:46:52.081Z,35.80
2019-04-06T18:49:23.184Z,35.20
2019-04-06T18:51:56.656Z,35.10
2019-04-06T18:54:25.512Z,35.20
2019-04-06T18:56:55.862Z,35.80
2019-04-06T18:59:24.861Z,35.90
2019-04-06T19:01:54.109Z,36.10
2019-04-06T19:04:23.107Z,36.40
2019-04-06T19:06:52.533Z,37.00
2019-04-06T19:09:24.019Z,37.70
2019-04-06T19:11:56.005Z,37.70
2019-04-06T19:14:22.521Z,37.60
2019-04-06T19:16:51.459Z,37.70
2019-04-06T19:19:20.520Z,37.60
2019-04-06T19:21:49.520Z,37.70
2019-04-06T19:24:20.670Z,38.30
2019-04-06T19:26:49.551Z,38.60
2019-04-06T19:29:18.357Z,38.50
2019-04-06T19:31:49.470Z,38.70
2019-04-06T19:34:20.657Z,39.40
2019-04-06T19:36:48.696Z,40.20
2019-04-06T19:39:19.772Z,40.20
2019-04-06T19:41:48.326Z,40.30
2019-04-06T19:44:17.276Z,40.20
2019-04-06T19:46:46.260Z,40.10
2019-04-06T19:49:15.277Z,40.30
2019-04-06T19:51:44.204Z,40.10
2019-04-06T19:54:14.147Z,40.40
2019-04-06T19:56:43.057Z,40.50
2019-04-06T19:59:13.544Z,40.70
2019-04-06T20:01:45.818Z,40.80
2019-04-06T20:04:15.075Z,40.90
2019-04-06T20:06:45.757Z,41.40
2019-04-06T20:09:15.069Z,41.30
2019-04-06T20:11:47.561Z,41.80
2019-04-06T20:14:16.431Z,42.00
2019-04-06T20:16:45.345Z,42.10
2019-04-06T20:19:15.428Z,42.40
2019-04-06T20:21:44.245Z,42.20
2019-04-06T20:24:13.039Z,42.50
2019-04-06T20:26:43.971Z,42.00
2019-04-06T20:29:15.213Z,41.70
2019-04-06T20:31:44.163Z,41.70
2019-04-06T20:34:16.331Z,41.00
2019-04-06T20:36:45.648Z,40.40
2019-04-06T20:39:14.632Z,40.00
2019-04-06T20:41:43.812Z,39.60
2019-04-06T20:44:16.670Z,39.70
2019-04-06T20:46:45.207Z,39.40
2019-04-06T20:49:17.774Z,39.30
2019-04-06T20:51:48.831Z,39.30
2019-04-06T20:54:18.570Z,39.40
2019-04-06T20:56:53.873Z,39.50
2019-04-06T20:59:18.304Z,39.70
2019-04-06T21:01:47.352Z,39.50
2019-04-06T21:04:16.648Z,39.40
2019-04-06T21:06:48.126Z,39.40
2019-04-06T21:09:17.264Z,39.50
2019-04-06T21:11:48.123Z,39.80
2019-04-06T21:14:16.995Z,40.00
2019-04-06T21:16:45.767Z,40.30
2019-04-06T21:19:16.336Z,40.40
2019-04-06T21:21:45.199Z,40.60
2019-04-06T21:24:14.183Z,41.00
2019-04-06T21:26:45.308Z,40.90
2019-04-06T21:29:14.241Z,41.20
2019-04-06T21:31:42.975Z,41.60
2019-04-06T21:34:14.338Z,41.80
2019-04-06T21:36:42.681Z,42.10
2019-04-06T21:39:12.101Z,42.20
2019-04-06T21:41:41.664Z,42.20
2019-04-06T21:44:11.239Z,42.50
2019-04-06T21:46:40.408Z,42.60
2019-04-06T21:49:09.444Z,42.80
2019-04-06T21:51:39.253Z,43.00
2019-04-06T21:54:09.330Z,43.00
2019-04-06T21:56:38.543Z,43.20
2019-04-06T21:59:09.766Z,43.30
2019-04-06T22:01:41.233Z,44.10
2019-04-06T22:04:13.530Z,43.50
2019-04-06T22:06:40.313Z,43.30
2019-04-06T22:09:11.142Z,43.30
2019-04-06T22:11:39.986Z,43.60
2019-04-06T22:14:10.026Z,44.20
2019-04-06T22:16:39.135Z,43.60
2019-04-06T22:19:08.092Z,43.90
2019-04-06T22:21:37.373Z,44.00
2019-04-06T22:24:06.289Z,44.10
2019-04-06T22:26:35.145Z,44.20
2019-04-06T22:29:04.027Z,44.50
2019-04-06T22:31:33.275Z,44.50
2019-04-06T22:34:02.173Z,44.70
2019-04-06T22:36:33.034Z,44.80
2019-04-06T22:39:03.155Z,45.00
2019-04-06T22:41:32.078Z,45.40
2019-04-06T22:44:00.866Z,45.70
2019-04-06T22:46:29.782Z,45.90
2019-04-06T22:48:58.584Z,46.10
2019-04-06T22:51:27.719Z,46.10
2019-04-06T22:53:58.244Z,46.20
2019-04-06T22:56:27.204Z,46.50
2019-04-06T22:58:56.019Z,46.80
2019-04-06T23:01:28.876Z,46.80
2019-04-06T23:04:14.363Z,47.00
2019-04-06T23:06:46.041Z,47.30
2019-04-06T23:09:15.078Z,47.50
2019-04-06T23:11:45.907Z,47.80
2019-04-06T23:14:14.360Z,47.90
2019-04-06T23:16:43.705Z,48.00
2019-04-06T23:19:14.888Z,48.10
2019-04-06T23:21:44.939Z,48.40
2019-04-06T23:24:14.743Z,48.50
2019-04-06T23:26:43.763Z,48.70
2019-04-06T23:29:12.654Z,49.00
2019-04-06T23:31:41.720Z,49.20
2019-04-06T23:34:11.712Z,49.60
2019-04-06T23:36:40.669Z,49.60
2019-04-06T23:39:10.821Z,49.80
2019-04-06T23:41:41.767Z,50.20
2019-04-06T23:44:10.602Z,50.30
2019-04-06T23:46:41.868Z,50.60
2019-04-06T23:49:12.067Z,51.40
2019-04-06T23:51:42.712Z,51.10
2019-04-06T23:54:11.630Z,51.30
2019-04-06T23:56:42.866Z,51.50
2019-04-06T23:59:12.079Z,51.70
